Father Mychal Judge — WDG3566 — position and weather

sailwx.info

Track history (hours):
 
Tides and Currents Weather Stations Pressure Air Temp Water Temp Dewpoint Dewpoint Depression Visibility Wind Speed Wind Dir Waves Ship Positions

Father Mychal Judge

Owner: Billy Bey Ferry, Weehawken, NJ. More information available from US FCC via Universal Licensing System and Coast Guard Vessel Documentation Center.

Last reported at 2017-Dec-15 00:43 UTC. Time now 2017-Dec-15 04:32 UTC.
Position N 40°41' W 074°04'.

Length 22 m; draft 2 m.

Type: Passenger vessel. MMSI: 366834160.

Date/timePositionNaut miles runAvg speedWind from/ knotsBaromVisibWave heightAir tempDewpointWater temp
2017-Dec-15 00:43N 40°41' W 074°04'314.4
2017-Dec-15 00:30N 40°42' W 074°01'3 0.3
2017-Dec-14 15:00N 40°41' W 074°04'0 0.8
2017-Dec-14 14:30N 40°41' W 074°05'0 0.2
2017-Dec-14 14:00N 40°41' W 074°04'2 3.8
2017-Dec-14 13:31N 40°41' W 074°02'2 3.1
2017-Dec-14 13:00N 40°42' W 074°01'1 2.7
2017-Dec-14 12:30N 40°41' W 074°02'1 1.9
2017-Dec-14 12:01N 40°41' W 074°03'1 1.8
2017-Dec-14 11:30N 40°41' W 074°04'0 0.6
2017-Dec-14 11:00N 40°41' W 074°04'0 0.0
2017-Dec-14 00:47N 40°41' W 074°04'310.7
2017-Dec-14 00:31N 40°42' W 074°01'1 3.0
2017-Dec-14 00:00N 40°41' W 074°02'1 3.0
2017-Dec-13 23:31N 40°41' W 074°04'0 0.6
2017-Dec-13 23:00N 40°41' W 074°04'0 0.7
2017-Dec-13 22:30N 40°41' W 074°04'2 3.6
2017-Dec-13 22:00N 40°41' W 074°02'1 2.2
2017-Dec-13 21:31N 40°42' W 074°01'0 0.0
2017-Dec-13 21:00N 40°42' W 074°01'3 5.8
2017-Dec-13 20:30N 40°41' W 074°04'0 0.0
2017-Dec-13 16:34N 40°41' W 074°04'0 0.0
2017-Dec-13 16:30N 40°41' W 074°04'3 5.3
2017-Dec-13 16:01N 40°43' W 074°02'4 7.4
2017-Dec-13 15:31N 40°46' W 074°01'0 0.0
2017-Dec-13 15:00N 40°46' W 074°01'611.0
2017-Dec-13 14:29N 40°41' W 074°04'1 1.9
2017-Dec-13 14:01N 40°41' W 074°04'2 3.8
2017-Dec-13 13:31N 40°42' W 074°01'1 1.5
2017-Dec-13 13:01N 40°42' W 074°01'1 2.7
2017-Dec-13 12:30N 40°41' W 074°02'1 2.6
2017-Dec-13 12:00N 40°41' W 074°04'0 0.7
2017-Dec-13 11:31N 40°41' W 074°04'1 1.0
2017-Dec-13 11:00N 40°41' W 074°05'0 0.0
2017-Dec-13 00:49N 40°41' W 074°04'3 9.5
2017-Dec-13 00:31N 40°42' W 074°01'1 2.9
2017-Dec-13 00:01N 40°41' W 074°02'1 2.3
2017-Dec-12 23:31N 40°41' W 074°04'1 1.8
2017-Dec-12 23:00N 40°41' W 074°04'0 0.3
2017-Dec-12 22:30N 40°41' W 074°04'1 2.4
2017-Dec-12 22:00N 40°41' W 074°03'2 3.4
2017-Dec-12 21:31N 40°42' W 074°01'0 0.5
2017-Dec-12 21:01N 40°42' W 074°01'3 0.5
2017-Dec-12 15:03N 40°41' W 074°04'0 2.4
2017-Dec-12 15:00N 40°41' W 074°04'0 0.2
2017-Dec-12 14:30N 40°41' W 074°05'1 1.1
2017-Dec-12 14:01N 40°41' W 074°04'2 3.0
2017-Dec-12 13:31N 40°41' W 074°02'1 2.6
2017-Dec-12 13:00N 40°42' W 074°01'1 2.1
2017-Dec-12 12:30N 40°41' W 074°02'2 3.2
2017-Dec-12 12:00N 40°41' W 074°04'1 1.6
2017-Dec-12 11:30N 40°41' W 074°04'0 0.3
2017-Dec-12 11:00N 40°41' W 074°05'0 0.0
2017-Dec-12 00:43N 40°41' W 074°04'314.2
2017-Dec-12 00:31N 40°42' W 074°01'2 3.2
2017-Dec-12 00:01N 40°41' W 074°02'1 2.3
2017-Dec-11 23:31N 40°41' W 074°04'1 1.6
2017-Dec-11 23:00N 40°41' W 074°04'0 0.7
2017-Dec-11 22:30N 40°41' W 074°04'2 3.4
2017-Dec-11 22:00N 40°41' W 074°02'1 2.0
2017-Dec-11 21:30N 40°42' W 074°01'0 0.7
2017-Dec-11 21:00N 40°42' W 074°01'3 5.8
2017-Dec-11 20:30N 40°41' W 074°04'0 0.0
2017-Dec-11 15:48N 40°41' W 074°04'3 9.7
2017-Dec-11 15:30N 40°43' W 074°02'3 6.5
2017-Dec-11 15:01N 40°46' W 074°01'611.2
2017-Dec-11 14:30N 40°41' W 074°04'0 1.0
2017-Dec-11 14:00N 40°41' W 074°04'2 3.3
2017-Dec-11 13:31N 40°41' W 074°02'1 2.4
2017-Dec-11 13:01N 40°42' W 074°01'1 2.0
2017-Dec-11 12:30N 40°41' W 074°02'2 3.5
2017-Dec-11 12:00N 40°41' W 074°04'1 1.1
2017-Dec-11 11:30N 40°41' W 074°04'0 0.2
2017-Dec-11 11:00N 40°41' W 074°05'  
2017-Dec-09 00:48N 40°41' W 074°04'310.1
2017-Dec-09 00:30N 40°42' W 074°01'2 4.0
2017-Dec-09 00:00N 40°41' W 074°03'1 2.5
2017-Dec-08 23:31N 40°41' W 074°04'0 0.3
2017-Dec-08 23:00N 40°41' W 074°04'0 0.3
2017-Dec-08 22:30N 40°41' W 074°04'1 2.4
2017-Dec-08 22:00N 40°41' W 074°03'2 4.7
2017-Dec-08 21:31N 40°42' W 074°01'0 0.1
2017-Dec-08 21:00N 40°42' W 074°01'3 5.8
2017-Dec-08 20:30N 40°41' W 074°04'0 0.0
2017-Dec-08 20:01N 40°41' W 074°04'0 0.0
2017-Dec-08 19:30N 40°41' W 074°04'0 0.0
2017-Dec-08 19:01N 40°41' W 074°04'0 0.0
2017-Dec-08 18:30N 40°41' W 074°04'0 0.0
2017-Dec-08 18:00N 40°41' W 074°04'0 0.0
2017-Dec-08 17:29N 40°41' W 074°04'0 0.0
2017-Dec-08 17:00N 40°41' W 074°04'0 0.0
2017-Dec-08 16:30N 40°41' W 074°04'0 0.0
2017-Dec-08 16:00N 40°41' W 074°04'611.7
2017-Dec-08 15:30N 40°46' W 074°01'0 0.0
2017-Dec-08 15:00N 40°46' W 074°01'611.5
2017-Dec-08 14:30N 40°41' W 074°05'1 1.1
2017-Dec-08 14:00N 40°41' W 074°04'1 2.7
2017-Dec-08 13:31N 40°41' W 074°02'2 3.1
2017-Dec-08 13:01N 40°42' W 074°01'2 3.3
2017-Dec-08 12:31N 40°41' W 074°02'1 2.7
2017-Dec-08 12:01N 40°41' W 074°04'0 0.6
2017-Dec-08 11:30N 40°41' W 074°04'0 0.3
2017-Dec-08 11:00N 40°41' W 074°05'0 0.0
2017-Dec-08 00:42N 40°41' W 074°04'314.8
2017-Dec-08 00:30N 40°42' W 074°01'2 3.5
2017-Dec-08 00:01N 40°41' W 074°02'1 2.5
2017-Dec-07 23:30N 40°41' W 074°04'0 0.9
2017-Dec-07 23:00N 40°41' W 074°05'1 2.3
2017-Dec-07 22:31N 40°41' W 074°03'1 1.6
2017-Dec-07 22:00N 40°41' W 074°02'2 3.4
2017-Dec-07 21:30N 40°42' W 074°01'0 0.1
2017-Dec-07 21:00N 40°42' W 074°01'3 5.9
2017-Dec-07 20:30N 40°41' W 074°04'0 0.0
2017-Dec-07 15:09N 40°41' W 074°04'1 6.5
2017-Dec-07 15:00N 40°41' W 074°04'1 1.9
2017-Dec-07 14:30N 40°41' W 074°04'1 1.6
2017-Dec-07 14:00N 40°41' W 074°04'1 2.7
2017-Dec-07 13:31N 40°41' W 074°02'1 2.8
2017-Dec-07 13:00N 40°42' W 074°01'1 1.7
2017-Dec-07 12:30N 40°42' W 074°02'2 3.7
2017-Dec-07 12:01N 40°41' W 074°04'1 1.3
2017-Dec-07 11:30N 40°41' W 074°04'0 0.5
2017-Dec-07 11:00N 40°41' W 074°05'0 0.0
2017-Dec-07 00:41N 40°41' W 074°04'315.6
2017-Dec-07 00:30N 40°42' W 074°01'1 2.6
2017-Dec-07 00:01N 40°41' W 074°02'2 3.5
2017-Dec-06 23:30N 40°41' W 074°04'1 1.5
2017-Dec-06 23:00N 40°41' W 074°05'1 2.0
2017-Dec-06 22:30N 40°41' W 074°04'1 2.3
2017-Dec-06 22:00N 40°41' W 074°02'2 3.2
2017-Dec-06 21:30N 40°42' W 074°01'0 0.2
2017-Dec-06 21:00N 40°42' W 074°01'  
Track history (hours):
 
Tides and Currents Weather Stations Pressure Air Temp Water Temp Dewpoint Dewpoint Depression Visibility Wind Speed Wind Dir Waves Ship Positions

Father Mychal Judge

Owner: Billy Bey Ferry, Weehawken, NJ. More information available from US FCC via Universal Licensing System and Coast Guard Vessel Documentation Center.

Last reported at 2017-Dec-15 00:43 UTC. Time now 2017-Dec-15 04:32 UTC.
Position N 40°41' W 074°04'.

Length 22 m; draft 2 m.

Type: Passenger vessel. MMSI: 366834160.

Date/timePositionNaut miles runAvg speedWind from/ knotsBaromVisibWave heightAir tempDewpointWater temp
2017-Dec-15 00:43N 40°41' W 074°04'314.4
2017-Dec-15 00:30N 40°42' W 074°01'3 0.3
2017-Dec-14 15:00N 40°41' W 074°04'0 0.8
2017-Dec-14 14:30N 40°41' W 074°05'0 0.2
2017-Dec-14 14:00N 40°41' W 074°04'2 3.8
2017-Dec-14 13:31N 40°41' W 074°02'2 3.1
2017-Dec-14 13:00N 40°42' W 074°01'1 2.7
2017-Dec-14 12:30N 40°41' W 074°02'1 1.9
2017-Dec-14 12:01N 40°41' W 074°03'1 1.8
2017-Dec-14 11:30N 40°41' W 074°04'0 0.6
2017-Dec-14 11:00N 40°41' W 074°04'0 0.0
2017-Dec-14 00:47N 40°41' W 074°04'310.7
2017-Dec-14 00:31N 40°42' W 074°01'1 3.0
2017-Dec-14 00:00N 40°41' W 074°02'1 3.0
2017-Dec-13 23:31N 40°41' W 074°04'0 0.6
2017-Dec-13 23:00N 40°41' W 074°04'0 0.7
2017-Dec-13 22:30N 40°41' W 074°04'2 3.6
2017-Dec-13 22:00N 40°41' W 074°02'1 2.2
2017-Dec-13 21:31N 40°42' W 074°01'0 0.0
2017-Dec-13 21:00N 40°42' W 074°01'3 5.8
2017-Dec-13 20:30N 40°41' W 074°04'0 0.0
2017-Dec-13 16:34N 40°41' W 074°04'0 0.0
2017-Dec-13 16:30N 40°41' W 074°04'3 5.3
2017-Dec-13 16:01N 40°43' W 074°02'4 7.4
2017-Dec-13 15:31N 40°46' W 074°01'0 0.0
2017-Dec-13 15:00N 40°46' W 074°01'611.0
2017-Dec-13 14:29N 40°41' W 074°04'1 1.9
2017-Dec-13 14:01N 40°41' W 074°04'2 3.8
2017-Dec-13 13:31N 40°42' W 074°01'1 1.5
2017-Dec-13 13:01N 40°42' W 074°01'1 2.7
2017-Dec-13 12:30N 40°41' W 074°02'1 2.6
2017-Dec-13 12:00N 40°41' W 074°04'0 0.7
2017-Dec-13 11:31N 40°41' W 074°04'1 1.0
2017-Dec-13 11:00N 40°41' W 074°05'0 0.0
2017-Dec-13 00:49N 40°41' W 074°04'3 9.5
2017-Dec-13 00:31N 40°42' W 074°01'1 2.9
2017-Dec-13 00:01N 40°41' W 074°02'1 2.3
2017-Dec-12 23:31N 40°41' W 074°04'1 1.8
2017-Dec-12 23:00N 40°41' W 074°04'0 0.3
2017-Dec-12 22:30N 40°41' W 074°04'1 2.4
2017-Dec-12 22:00N 40°41' W 074°03'2 3.4
2017-Dec-12 21:31N 40°42' W 074°01'0 0.5
2017-Dec-12 21:01N 40°42' W 074°01'3 0.5
2017-Dec-12 15:03N 40°41' W 074°04'0 2.4
2017-Dec-12 15:00N 40°41' W 074°04'0 0.2
2017-Dec-12 14:30N 40°41' W 074°05'1 1.1
2017-Dec-12 14:01N 40°41' W 074°04'2 3.0
2017-Dec-12 13:31N 40°41' W 074°02'1 2.6
2017-Dec-12 13:00N 40°42' W 074°01'1 2.1
2017-Dec-12 12:30N 40°41' W 074°02'2 3.2
2017-Dec-12 12:00N 40°41' W 074°04'1 1.6
2017-Dec-12 11:30N 40°41' W 074°04'0 0.3
2017-Dec-12 11:00N 40°41' W 074°05'0 0.0
2017-Dec-12 00:43N 40°41' W 074°04'314.2
2017-Dec-12 00:31N 40°42' W 074°01'2 3.2
2017-Dec-12 00:01N 40°41' W 074°02'1 2.3
2017-Dec-11 23:31N 40°41' W 074°04'1 1.6
2017-Dec-11 23:00N 40°41' W 074°04'0 0.7
2017-Dec-11 22:30N 40°41' W 074°04'2 3.4
2017-Dec-11 22:00N 40°41' W 074°02'1 2.0
2017-Dec-11 21:30N 40°42' W 074°01'0 0.7
2017-Dec-11 21:00N 40°42' W 074°01'3 5.8
2017-Dec-11 20:30N 40°41' W 074°04'0 0.0
2017-Dec-11 15:48N 40°41' W 074°04'3 9.7
2017-Dec-11 15:30N 40°43' W 074°02'3 6.5
2017-Dec-11 15:01N 40°46' W 074°01'611.2
2017-Dec-11 14:30N 40°41' W 074°04'0 1.0
2017-Dec-11 14:00N 40°41' W 074°04'2 3.3
2017-Dec-11 13:31N 40°41' W 074°02'1 2.4
2017-Dec-11 13:01N 40°42' W 074°01'1 2.0
2017-Dec-11 12:30N 40°41' W 074°02'2 3.5
2017-Dec-11 12:00N 40°41' W 074°04'1 1.1
2017-Dec-11 11:30N 40°41' W 074°04'0 0.2
2017-Dec-11 11:00N 40°41' W 074°05'  
2017-Dec-09 00:48N 40°41' W 074°04'310.1
2017-Dec-09 00:30N 40°42' W 074°01'2 4.0
2017-Dec-09 00:00N 40°41' W 074°03'1 2.5
2017-Dec-08 23:31N 40°41' W 074°04'0 0.3
2017-Dec-08 23:00N 40°41' W 074°04'0 0.3
2017-Dec-08 22:30N 40°41' W 074°04'1 2.4
2017-Dec-08 22:00N 40°41' W 074°03'2 4.7
2017-Dec-08 21:31N 40°42' W 074°01'0 0.1
2017-Dec-08 21:00N 40°42' W 074°01'3 5.8
2017-Dec-08 20:30N 40°41' W 074°04'0 0.0
2017-Dec-08 20:01N 40°41' W 074°04'0 0.0
2017-Dec-08 19:30N 40°41' W 074°04'0 0.0
2017-Dec-08 19:01N 40°41' W 074°04'0 0.0
2017-Dec-08 18:30N 40°41' W 074°04'0 0.0
2017-Dec-08 18:00N 40°41' W 074°04'0 0.0
2017-Dec-08 17:29N 40°41' W 074°04'0 0.0
2017-Dec-08 17:00N 40°41' W 074°04'0 0.0
2017-Dec-08 16:30N 40°41' W 074°04'0 0.0
2017-Dec-08 16:00N 40°41' W 074°04'611.7
2017-Dec-08 15:30N 40°46' W 074°01'0 0.0
2017-Dec-08 15:00N 40°46' W 074°01'611.5
2017-Dec-08 14:30N 40°41' W 074°05'1 1.1
2017-Dec-08 14:00N 40°41' W 074°04'1 2.7
2017-Dec-08 13:31N 40°41' W 074°02'2 3.1
2017-Dec-08 13:01N 40°42' W 074°01'2 3.3
2017-Dec-08 12:31N 40°41' W 074°02'1 2.7
2017-Dec-08 12:01N 40°41' W 074°04'0 0.6
2017-Dec-08 11:30N 40°41' W 074°04'0 0.3
2017-Dec-08 11:00N 40°41' W 074°05'0 0.0
2017-Dec-08 00:42N 40°41' W 074°04'314.8
2017-Dec-08 00:30N 40°42' W 074°01'2 3.5
2017-Dec-08 00:01N 40°41' W 074°02'1 2.5
2017-Dec-07 23:30N 40°41' W 074°04'0 0.9
2017-Dec-07 23:00N 40°41' W 074°05'1 2.3
2017-Dec-07 22:31N 40°41' W 074°03'1 1.6
2017-Dec-07 22:00N 40°41' W 074°02'2 3.4
2017-Dec-07 21:30N 40°42' W 074°01'0 0.1
2017-Dec-07 21:00N 40°42' W 074°01'3 5.9
2017-Dec-07 20:30N 40°41' W 074°04'0 0.0
2017-Dec-07 15:09N 40°41' W 074°04'1 6.5
2017-Dec-07 15:00N 40°41' W 074°04'1 1.9
2017-Dec-07 14:30N 40°41' W 074°04'1 1.6
2017-Dec-07 14:00N 40°41' W 074°04'1 2.7
2017-Dec-07 13:31N 40°41' W 074°02'1 2.8
2017-Dec-07 13:00N 40°42' W 074°01'1 1.7
2017-Dec-07 12:30N 40°42' W 074°02'2 3.7
2017-Dec-07 12:01N 40°41' W 074°04'1 1.3
2017-Dec-07 11:30N 40°41' W 074°04'0 0.5
2017-Dec-07 11:00N 40°41' W 074°05'0 0.0
2017-Dec-07 00:41N 40°41' W 074°04'315.6
2017-Dec-07 00:30N 40°42' W 074°01'1 2.6
2017-Dec-07 00:01N 40°41' W 074°02'2 3.5
2017-Dec-06 23:30N 40°41' W 074°04'1 1.5
2017-Dec-06 23:00N 40°41' W 074°05'1 2.0
2017-Dec-06 22:30N 40°41' W 074°04'1 2.3
2017-Dec-06 22:00N 40°41' W 074°02'2 3.2
2017-Dec-06 21:30N 40°42' W 074°01'0 0.2
2017-Dec-06 21:00N 40°42' W 074°01'  

Dump ship's entire track history